createdAt,value
2023-03-15T00:03:12.411Z,1.60
2023-03-15T00:08:16.597Z,1.50
2023-03-15T00:13:19.887Z,1.50
2023-03-15T00:18:24.990Z,1.50
2023-03-15T00:23:29.561Z,1.50
2023-03-15T00:28:32.971Z,1.50
2023-03-15T00:33:37.887Z,1.50
2023-03-15T00:38:44.157Z,1.50
2023-03-15T00:43:48.949Z,1.50
2023-03-15T00:48:55.652Z,1.40
2023-03-15T00:53:59.097Z,1.40
2023-03-15T00:59:02.405Z,1.40
2023-03-15T01:04:07.549Z,1.50
2023-03-15T01:09:12.018Z,1.50
2023-03-15T01:14:15.450Z,1.50
2023-03-15T01:19:20.609Z,1.40
2023-03-15T01:24:24.035Z,1.30
2023-03-15T01:29:27.603Z,1.30
2023-03-15T01:34:33.389Z,1.20
2023-03-15T01:39:36.730Z,1.30
2023-03-15T01:44:52.157Z,1.30
2023-03-15T01:50:03.773Z,1.20
2023-03-15T01:55:11.366Z,0.90
2023-03-15T02:00:17.844Z,0.60
2023-03-15T02:05:32.536Z,0.40
2023-03-15T02:10:40.006Z,0.30
2023-03-15T02:15:46.914Z,0.20
2023-03-15T02:21:00.317Z,0.10
2023-03-15T02:26:14.289Z,0.00
2023-03-15T02:31:19.157Z,-0.10
2023-03-15T02:36:25.903Z,-0.20
2023-03-15T02:41:33.308Z,-0.20
2023-03-15T02:46:39.058Z,-0.20
2023-03-15T02:51:42.370Z,-0.30
2023-03-15T02:56:45.581Z,-0.20
2023-03-15T03:01:50.268Z,-0.20
2023-03-15T03:06:53.501Z,-0.30
2023-03-15T03:11:56.717Z,-0.40
2023-03-15T03:17:01.904Z,-0.50
2023-03-15T03:22:05.480Z,-0.60
2023-03-15T03:27:09.077Z,-0.60
2023-03-15T03:32:16.018Z,-0.60
2023-03-15T03:37:19.442Z,-0.70
2023-03-15T03:42:22.766Z,-0.70
2023-03-15T03:47:30.162Z,-0.80
2023-03-15T03:52:33.460Z,-0.80
2023-03-15T03:57:36.769Z,-0.90
2023-03-15T04:02:42.772Z,-1.00
2023-03-15T04:07:46.272Z,-1.10
2023-03-15T04:12:49.508Z,-1.10
2023-03-15T04:17:58.556Z,-1.10
2023-03-15T04:23:02.894Z,-1.30
2023-03-15T04:28:10.692Z,-1.40
2023-03-15T04:33:15.498Z,-1.40
2023-03-15T04:38:18.741Z,-1.40
2023-03-15T04:43:24.484Z,-1.40
2023-03-15T04:48:29.215Z,-1.50
2023-03-15T04:53:33.580Z,-1.60
2023-03-15T04:58:36.951Z,-1.60
2023-03-15T05:03:41.624Z,-1.60
2023-03-15T05:08:47.046Z,-1.60
2023-03-15T05:13:50.634Z,-1.80
2023-03-15T05:18:56.815Z,-1.80
2023-03-15T05:24:00.166Z,-1.80
2023-03-15T05:29:04.849Z,-1.80
2023-03-15T05:34:11.577Z,-1.80
2023-03-15T05:39:16.938Z,-1.80
2023-03-15T05:44:21.209Z,-1.90
2023-03-15T05:49:27.004Z,-1.90
2023-03-15T05:54:31.284Z,-1.90
2023-03-15T05:59:34.659Z,-1.60
2023-03-15T06:04:39.919Z,-1.50
2023-03-15T06:09:43.569Z,-1.40
2023-03-15T06:14:46.761Z,-1.20
2023-03-15T06:19:54.919Z,-1.10
2023-03-15T06:24:59.181Z,-0.90
2023-03-15T06:30:03.830Z,-0.90
2023-03-15T06:35:09.453Z,-0.70
2023-03-15T06:40:13.769Z,-0.50
2023-03-15T06:45:21.415Z,-0.30
2023-03-15T06:50:29.507Z,1.90
2023-03-15T06:55:39.434Z,5.20
2023-03-15T07:00:42.954Z,6.60
2023-03-15T07:05:49.698Z,7.70
2023-03-15T07:10:53.532Z,9.00
2023-03-15T07:15:57.603Z,9.70
2023-03-15T07:21:03.598Z,10.00
2023-03-15T07:26:08.566Z,10.50
2023-03-15T07:31:14.311Z,10.00
2023-03-15T07:36:20.211Z,10.60
2023-03-15T07:41:23.639Z,10.80
2023-03-15T07:46:30.995Z,10.40
2023-03-15T07:51:37.902Z,10.00
2023-03-15T07:56:43.293Z,9.10
2023-03-15T08:01:46.643Z,9.70
2023-03-15T08:06:51.750Z,10.50
2023-03-15T08:11:58.023Z,11.30
2023-03-15T08:17:03.065Z,11.60
2023-03-15T08:22:08.367Z,11.80
2023-03-15T08:27:12.093Z,10.50
2023-03-15T08:32:19.076Z,9.90
2023-03-15T08:37:24.114Z,10.30
2023-03-15T08:42:28.950Z,11.70
2023-03-15T08:47:32.238Z,11.90
2023-03-15T08:52:37.136Z,12.20
2023-03-15T08:57:42.469Z,12.20
2023-03-15T09:02:45.807Z,10.70
2023-03-15T09:07:53.222Z,11.70
2023-03-15T09:12:59.245Z,11.70
2023-03-15T09:18:02.633Z,11.60
2023-03-15T09:23:10.612Z,11.90
2023-03-15T09:28:14.929Z,12.20
2023-03-15T09:33:22.102Z,12.40
2023-03-15T09:38:27.078Z,10.90
2023-03-15T09:44:00.162Z,10.30
2023-03-15T09:49:11.942Z,9.20
2023-03-15T09:54:24.886Z,8.50
2023-03-15T09:59:33.776Z,8.30
2023-03-15T10:04:42.516Z,9.60
2023-03-15T10:09:51.585Z,10.20
2023-03-15T10:15:12.205Z,10.10
2023-03-15T10:20:19.308Z,9.90
2023-03-15T10:25:27.985Z,9.80
2023-03-15T10:30:34.263Z,9.90
2023-03-15T10:35:37.893Z,9.80
2023-03-15T10:40:46.685Z,9.90
2023-03-15T10:46:01.510Z,9.10
2023-03-15T10:51:12.634Z,8.50
2023-03-15T10:56:27.279Z,8.20
2023-03-15T11:01:36.279Z,8.20
2023-03-15T11:06:45.071Z,9.10
2023-03-15T11:12:02.069Z,9.40
2023-03-15T11:17:08.457Z,9.40
2023-03-15T11:22:15.213Z,9.50
2023-03-15T11:27:24.419Z,9.40
2023-03-15T11:32:31.805Z,10.20
2023-03-15T11:37:39.611Z,10.00
2023-03-15T11:42:50.616Z,9.30
2023-03-15T11:47:59.745Z,9.50
2023-03-15T11:53:07.384Z,9.30
2023-03-15T11:58:34.114Z,9.60
2023-03-15T12:03:40.512Z,9.60
2023-03-15T12:08:46.619Z,9.80
2023-03-15T12:14:04.016Z,10.20
2023-03-15T12:19:15.507Z,10.60
2023-03-15T12:24:24.740Z,10.80
2023-03-15T12:29:32.658Z,10.10
2023-03-15T12:35:00.109Z,9.80
2023-03-15T12:40:31.086Z,9.60
2023-03-15T12:45:49.247Z,9.40
2023-03-15T12:51:01.389Z,9.40
2023-03-15T12:56:41.861Z,10.20
2023-03-15T13:01:49.562Z,10.10
2023-03-15T13:07:06.133Z,10.50
2023-03-15T13:12:18.861Z,10.50
2023-03-15T13:17:39.409Z,10.20
2023-03-15T13:22:56.033Z,10.20
2023-03-15T13:28:02.721Z,9.50
2023-03-15T13:33:22.560Z,9.20
2023-03-15T13:38:30.051Z,9.00
2023-03-15T13:43:35.387Z,8.80
2023-03-15T13:48:45.428Z,9.00
2023-03-15T13:53:51.053Z,9.00
2023-03-15T13:58:56.855Z,9.10
2023-03-15T14:04:10.228Z,9.10
2023-03-15T14:09:20.334Z,8.70
2023-03-15T14:14:29.584Z,8.30
2023-03-15T14:19:37.132Z,8.20
2023-03-15T14:24:42.603Z,8.20
2023-03-15T14:29:48.895Z,8.30
2023-03-15T14:35:01.541Z,8.10
2023-03-15T14:40:15.211Z,8.10
2023-03-15T14:45:19.507Z,7.80
2023-03-15T14:50:29.488Z,7.90
2023-03-15T14:55:35.139Z,7.90
2023-03-15T15:00:40.319Z,8.10
2023-03-15T15:05:45.498Z,8.20
2023-03-15T15:10:49.786Z,8.00
2023-03-15T15:15:56.076Z,7.80
2023-03-15T15:21:05.719Z,7.80
2023-03-15T15:26:20.901Z,7.40
2023-03-15T15:31:28.621Z,6.90
2023-03-15T15:36:35.707Z,6.80
2023-03-15T15:41:39.416Z,6.60
2023-03-15T15:46:42.624Z,6.90
2023-03-15T15:51:50.214Z,6.90
2023-03-15T15:56:57.133Z,6.60
2023-03-15T16:02:02.518Z,6.40
2023-03-15T16:07:15.399Z,6.40
2023-03-15T16:12:20.533Z,6.30
2023-03-15T16:23:00.479Z,5.90
2023-03-15T16:28:07.845Z,5.70
2023-03-15T16:33:16.276Z,5.30
2023-03-15T16:38:26.658Z,5.10
2023-03-15T16:43:29.879Z,5.00
2023-03-15T16:48:35.195Z,5.00
2023-03-15T16:54:19.629Z,4.90
2023-03-15T16:59:27.858Z,4.80
2023-03-15T17:04:31.128Z,4.70
2023-03-15T17:09:35.829Z,4.70
2023-03-15T17:14:39.046Z,4.50
2023-03-15T17:19:42.342Z,4.30
2023-03-15T17:24:47.580Z,4.10
2023-03-15T17:29:50.776Z,4.00
2023-03-15T17:34:59.133Z,3.90
2023-03-15T17:40:10.200Z,3.80
2023-03-15T17:45:17.343Z,3.90
2023-03-15T17:50:26.574Z,3.80
2023-03-15T17:55:35.087Z,3.80
2023-03-15T18:00:38.618Z,3.80
2023-03-15T18:05:42.101Z,3.80
2023-03-15T18:10:48.967Z,3.80
2023-03-15T18:15:52.698Z,3.90
2023-03-15T18:20:56.030Z,3.90
2023-03-15T18:26:02.115Z,3.90
2023-03-15T18:31:06.542Z,3.90
2023-03-15T18:36:10.259Z,3.80
2023-03-15T18:41:20.662Z,3.80
2023-03-15T18:46:26.521Z,3.70
2023-03-15T18:51:29.903Z,3.60
2023-03-15T18:56:37.561Z,3.50
2023-03-15T19:01:54.038Z,3.40
2023-03-15T19:07:02.227Z,3.20
2023-03-15T19:12:07.994Z,3.00
2023-03-15T19:17:11.295Z,2.90
2023-03-15T19:22:14.940Z,2.80
2023-03-15T19:27:19.925Z,2.70
2023-03-15T19:32:26.390Z,2.50
2023-03-15T19:37:32.850Z,2.50
2023-03-15T19:42:37.472Z,2.40
2023-03-15T19:47:41.196Z,2.20
2023-03-15T19:52:46.984Z,2.20
2023-03-15T19:57:51.720Z,2.20
2023-03-15T20:02:55.612Z,2.10
2023-03-15T20:08:05.783Z,2.00
2023-03-15T20:13:12.500Z,1.90
2023-03-15T20:18:24.997Z,1.80
2023-03-15T20:23:28.704Z,1.70
2023-03-15T20:28:33.623Z,1.70
2023-03-15T20:33:38.964Z,1.60
2023-03-15T20:38:42.249Z,1.50
2023-03-15T20:43:47.586Z,1.30
2023-03-15T20:48:52.439Z,1.20
2023-03-15T20:53:55.756Z,1.10
2023-03-15T20:59:00.545Z,0.90
2023-03-15T21:04:06.984Z,0.70
2023-03-15T21:09:10.255Z,0.60
2023-03-15T21:14:14.962Z,0.50
2023-03-15T21:19:18.864Z,0.40
2023-03-15T21:24:22.187Z,0.30
2023-03-15T21:29:27.036Z,0.20
2023-03-15T21:34:30.335Z,0.10
2023-03-15T21:39:33.690Z,0.00
2023-03-15T21:44:38.570Z,0.00
2023-03-15T21:49:44.794Z,-0.10
2023-03-15T21:54:48.078Z,-0.20
2023-03-15T21:59:53.080Z,-0.20
2023-03-15T22:04:56.555Z,-0.10
2023-03-15T22:09:59.811Z,0.20
2023-03-15T22:15:06.259Z,0.30
2023-03-15T22:20:13.860Z,0.10
2023-03-15T22:25:17.770Z,0.00
2023-03-15T22:30:26.038Z,-0.10
2023-03-15T22:35:29.819Z,-0.20
2023-03-15T22:40:33.089Z,-0.20
2023-03-15T22:45:39.244Z,-0.20
2023-03-15T22:50:42.552Z,-0.10
2023-03-15T22:55:45.907Z,0.00
2023-03-15T23:00:50.918Z,0.10
2023-03-15T23:05:54.703Z,0.10
2023-03-15T23:10:59.824Z,0.10
2023-03-15T23:16:05.425Z,0.00
2023-03-15T23:21:13.609Z,-0.10
2023-03-15T23:26:19.285Z,-0.20
2023-03-15T23:31:24.000Z,-0.40
2023-03-15T23:36:27.318Z,-0.50
2023-03-15T23:41:30.660Z,-0.50
2023-03-15T23:46:36.356Z,-0.50
2023-03-15T23:51:40.367Z,-0.40
2023-03-15T23:56:44.907Z,-0.50
